createdAt,value
2023-05-17T00:00:22.755Z,9.95
2023-05-17T00:05:24.841Z,9.82
2023-05-17T00:10:26.931Z,10.50
2023-05-17T00:15:29.182Z,10.25
2023-05-17T00:20:31.433Z,9.98
2023-05-17T00:25:33.512Z,8.98
2023-05-17T00:30:35.644Z,10.15
2023-05-17T00:35:37.748Z,10.50
2023-05-17T00:40:39.791Z,9.65
2023-05-17T00:45:41.847Z,9.43
2023-05-17T00:50:44.142Z,7.88
2023-05-17T00:55:47.390Z,10.27
2023-05-17T01:00:51.346Z,10.18
2023-05-17T01:05:53.971Z,9.73
2023-05-17T01:11:29.605Z,8.48
2023-05-17T01:16:42.579Z,9.10
2023-05-17T01:22:13.283Z,10.45
2023-05-17T01:27:17.011Z,8.82
2023-05-17T01:32:20.147Z,8.45
2023-05-17T01:37:22.251Z,9.35
2023-05-17T01:42:33.078Z,7.88
2023-05-17T01:48:06.629Z,8.52
2023-05-17T01:53:19.335Z,8.32
2023-05-17T01:58:25.602Z,7.78
2023-05-17T02:03:28.854Z,7.47
2023-05-17T02:08:30.988Z,8.15
2023-05-17T02:13:32.966Z,8.10
2023-05-17T02:18:36.089Z,7.60
2023-05-17T02:23:38.364Z,7.70
2023-05-17T02:28:40.433Z,7.78
2023-05-17T02:33:42.656Z,8.00
2023-05-17T02:38:44.711Z,6.38
2023-05-17T02:43:46.701Z,7.63
2023-05-17T02:48:48.762Z,6.50
2023-05-17T02:53:50.829Z,6.30
2023-05-17T02:58:52.864Z,6.75
2023-05-17T03:03:55.235Z,7.35
2023-05-17T03:08:57.559Z,6.80
2023-05-17T03:13:59.578Z,5.68
2023-05-17T03:19:01.958Z,6.68
2023-05-17T03:24:04.389Z,5.82
2023-05-17T03:29:06.483Z,5.70
2023-05-17T03:34:08.634Z,4.38
2023-05-17T03:39:10.660Z,4.80
2023-05-17T03:44:12.808Z,5.38
2023-05-17T03:49:15.010Z,5.80
2023-05-17T03:54:17.293Z,5.22
2023-05-17T03:59:19.989Z,4.53
2023-05-17T04:04:22.147Z,5.13
2023-05-17T04:09:24.277Z,4.55
2023-05-17T04:14:26.263Z,5.35
2023-05-17T04:19:28.484Z,4.70
2023-05-17T04:24:30.577Z,4.78
2023-05-17T04:29:32.752Z,4.65
2023-05-17T04:34:34.888Z,5.20
2023-05-17T04:39:36.889Z,4.70
2023-05-17T04:44:38.959Z,4.75
2023-05-17T04:49:41.892Z,4.50
2023-05-17T04:54:44.019Z,4.40
2023-05-17T04:59:46.082Z,4.35
2023-05-17T05:04:48.126Z,4.47
2023-05-17T05:09:50.264Z,3.60
2023-05-17T05:14:52.349Z,3.83
2023-05-17T05:19:54.620Z,4.32
2023-05-17T05:24:57.049Z,6.05
2023-05-17T05:29:59.213Z,4.65
2023-05-17T05:35:01.597Z,4.15
2023-05-17T05:40:03.910Z,4.13
2023-05-17T05:45:06.743Z,4.60
2023-05-17T05:50:09.619Z,4.45
2023-05-17T05:55:11.862Z,5.53
2023-05-17T06:00:14.498Z,4.70
2023-05-17T06:05:16.738Z,3.97
2023-05-17T06:10:18.969Z,4.25
2023-05-17T06:15:21.042Z,4.72
2023-05-17T06:20:23.128Z,4.80
2023-05-17T06:25:25.315Z,6.25
2023-05-17T06:30:28.138Z,7.32
2023-05-17T06:35:37.404Z,6.35
2023-05-17T06:45:46.575Z,6.35
2023-05-17T06:50:48.970Z,7.90
2023-05-17T06:55:51.117Z,7.15
2023-05-17T07:00:53.874Z,7.03
2023-05-17T07:05:56.010Z,7.70
2023-05-17T07:10:58.304Z,7.53
2023-05-17T07:16:01.019Z,7.63
2023-05-17T07:21:03.086Z,9.40
2023-05-17T07:26:05.442Z,8.35
2023-05-17T07:31:08.747Z,6.68
2023-05-17T07:36:11.173Z,6.45
2023-05-17T07:41:17.183Z,5.97
2023-05-17T07:46:19.525Z,4.82
2023-05-17T07:51:21.944Z,5.00
2023-05-17T07:56:24.098Z,4.50
2023-05-17T08:01:27.158Z,5.30
2023-05-17T08:06:29.348Z,3.63
2023-05-17T08:11:33.380Z,3.70
2023-05-17T08:16:37.808Z,3.55
2023-05-17T08:21:40.846Z,2.20
2023-05-17T08:26:45.525Z,2.90
2023-05-17T08:31:47.664Z,2.50
2023-05-17T08:36:49.952Z,2.72
2023-05-17T08:41:52.189Z,2.17
2023-05-17T08:46:57.033Z,2.97
2023-05-17T08:52:01.268Z,3.15
2023-05-17T08:57:07.998Z,3.00
2023-05-17T09:02:11.084Z,3.10
2023-05-17T09:07:14.624Z,2.60
2023-05-17T09:12:17.364Z,4.15
2023-05-17T09:17:21.396Z,2.53
2023-05-17T09:22:24.374Z,3.17
2023-05-17T09:27:26.667Z,2.53
2023-05-17T09:32:29.196Z,2.25
2023-05-17T09:37:31.413Z,2.35
2023-05-17T09:42:39.750Z,2.42
2023-05-17T09:47:41.957Z,1.88
2023-05-17T09:52:44.239Z,2.28
2023-05-17T09:57:47.451Z,2.00
2023-05-17T10:02:51.374Z,1.88
2023-05-17T10:07:56.723Z,1.73
2023-05-17T10:13:01.212Z,2.45
2023-05-17T10:18:04.260Z,1.80
2023-05-17T10:23:07.915Z,1.50
2023-05-17T10:28:11.988Z,2.08
2023-05-17T10:33:16.502Z,1.98
2023-05-17T10:38:20.448Z,2.03
2023-05-17T10:43:25.753Z,1.52
2023-05-17T10:48:31.694Z,1.38
2023-05-17T10:53:34.195Z,1.50
2023-05-17T10:58:36.278Z,1.65
2023-05-17T11:03:40.213Z,1.88
2023-05-17T11:08:50.029Z,2.15
2023-05-17T11:14:05.516Z,2.00
2023-05-17T11:19:12.388Z,1.88
2023-05-17T11:24:25.882Z,1.73
2023-05-17T11:29:31.660Z,2.05
2023-05-17T11:34:34.138Z,1.85
2023-05-17T11:39:36.476Z,1.95
2023-05-17T11:44:38.980Z,2.22
2023-05-17T11:49:42.628Z,2.15
2023-05-17T11:54:46.280Z,2.28
2023-05-17T11:59:48.919Z,2.90
2023-05-17T12:04:52.015Z,2.40
2023-05-17T12:09:54.204Z,1.98
2023-05-17T12:14:58.908Z,2.00
2023-05-17T12:20:11.155Z,2.45
2023-05-17T12:25:20.375Z,11.25
2023-05-17T12:30:24.276Z,3.00
2023-05-17T12:35:26.421Z,2.60
2023-05-17T12:40:30.045Z,2.20
2023-05-17T12:45:32.912Z,2.25
2023-05-17T12:54:34.048Z,3.05
2023-05-17T12:59:51.453Z,3.05
2023-05-17T13:04:53.900Z,2.85
2023-05-17T13:10:12.763Z,2.92
2023-05-17T13:15:15.425Z,2.47
2023-05-17T13:20:19.065Z,2.85
2023-05-17T13:25:21.331Z,2.67
2023-05-17T13:30:23.430Z,2.85
2023-05-17T13:35:38.474Z,2.20
2023-05-17T13:40:42.740Z,2.95
2023-05-17T13:45:45.414Z,2.85
2023-05-17T13:51:00.274Z,2.75
2023-05-17T13:56:03.583Z,2.53
2023-05-17T14:01:09.216Z,2.55
2023-05-17T14:06:16.711Z,2.90
2023-05-17T14:11:22.948Z,2.60
2023-05-17T14:16:27.126Z,2.65
2023-05-17T14:21:31.773Z,2.63
2023-05-17T14:26:35.192Z,2.50
2023-05-17T14:31:41.476Z,2.55
2023-05-17T14:36:44.694Z,2.45
2023-05-17T14:47:53.837Z,2.92
2023-05-17T14:53:04.877Z,2.92
2023-05-17T14:58:11.237Z,3.17
2023-05-17T15:03:13.647Z,2.53
2023-05-17T15:08:15.908Z,3.03
2023-05-17T15:13:19.132Z,3.03
2023-05-17T15:18:21.554Z,3.03
2023-05-17T15:23:23.763Z,2.67
2023-05-17T15:28:26.033Z,3.10
2023-05-17T15:33:31.365Z,3.67
2023-05-17T15:38:34.516Z,3.53
2023-05-17T15:43:37.161Z,3.55
2023-05-17T15:48:39.555Z,2.90
2023-05-17T15:53:43.032Z,3.15
2023-05-17T15:58:45.869Z,2.88
2023-05-17T16:03:48.148Z,2.78
2023-05-17T16:08:51.223Z,3.15
2023-05-17T16:13:53.306Z,2.65
2023-05-17T16:18:58.293Z,2.63
2023-05-17T16:24:01.412Z,2.80
2023-05-17T16:29:07.573Z,2.85
2023-05-17T16:34:12.550Z,2.78
2023-05-17T16:39:15.501Z,2.70
2023-05-17T16:44:19.313Z,2.80
2023-05-17T16:49:22.284Z,3.17
2023-05-17T16:54:26.714Z,3.20
2023-05-17T16:59:28.907Z,3.55
2023-05-17T17:04:33.160Z,2.92
2023-05-17T17:09:36.257Z,2.67
2023-05-17T17:14:39.002Z,3.15
2023-05-17T17:19:41.482Z,2.65
2023-05-17T17:24:44.993Z,2.58
2023-05-17T17:29:48.348Z,2.67
2023-05-17T17:34:51.280Z,2.42
2023-05-17T17:39:55.264Z,3.03
2023-05-17T17:44:58.082Z,2.67
2023-05-17T17:50:00.331Z,3.22
2023-05-17T17:55:02.678Z,2.55
2023-05-17T18:00:05.246Z,3.95
2023-05-17T18:05:08.218Z,2.58
2023-05-17T18:10:11.873Z,3.13
2023-05-17T18:15:15.528Z,7.05
2023-05-17T18:20:22.597Z,3.65
2023-05-17T18:25:25.003Z,3.03
2023-05-17T18:30:30.584Z,2.15
2023-05-17T18:35:37.493Z,4.22
2023-05-17T18:40:43.518Z,3.05
2023-05-17T18:45:46.613Z,2.22
2023-05-17T18:50:51.620Z,2.05
2023-05-17T18:55:55.457Z,1.60
2023-05-17T19:00:59.262Z,2.30
2023-05-17T19:06:02.139Z,2.80
2023-05-17T19:11:08.153Z,2.88
2023-05-17T19:16:13.411Z,2.15
2023-05-17T19:21:17.493Z,2.30
2023-05-17T19:26:20.011Z,1.85
2023-05-17T19:31:23.192Z,1.52
2023-05-17T19:36:26.731Z,1.63
2023-05-17T19:41:29.271Z,2.00
2023-05-17T19:46:32.313Z,1.60
2023-05-17T19:51:35.444Z,1.40
2023-05-17T19:56:39.617Z,1.73
2023-05-17T20:01:42.702Z,1.52
2023-05-17T20:06:45.814Z,1.55
2023-05-17T20:11:49.237Z,1.35
2023-05-17T20:16:51.877Z,1.90
2023-05-17T20:21:55.052Z,1.88
2023-05-17T20:26:58.717Z,1.70
2023-05-17T20:32:01.682Z,1.60
2023-05-17T20:37:06.600Z,1.60
2023-05-17T20:42:10.273Z,1.15
2023-05-17T20:47:12.803Z,2.25
2023-05-17T20:52:17.907Z,1.60
2023-05-17T20:57:22.206Z,1.45
2023-05-17T21:02:25.541Z,1.85
2023-05-17T21:07:30.672Z,1.48
2023-05-17T21:12:35.611Z,1.80
2023-05-17T21:17:38.738Z,1.63
2023-05-17T21:22:48.208Z,0.75
2023-05-17T21:27:52.595Z,1.33
2023-05-17T21:33:01.334Z,1.13
2023-05-17T21:38:06.951Z,1.63
2023-05-17T21:43:13.075Z,1.63
2023-05-17T21:48:18.237Z,0.90
2023-05-17T21:53:20.758Z,1.00
2023-05-17T21:58:24.309Z,1.23
2023-05-17T22:03:26.541Z,1.23
2023-05-17T22:13:32.915Z,1.50
2023-05-17T22:18:35.649Z,1.38
2023-05-17T22:23:37.828Z,1.15
2023-05-17T22:28:39.863Z,1.25
2023-05-17T22:33:42.233Z,1.20
2023-05-17T22:38:44.573Z,1.45
2023-05-17T22:43:46.619Z,1.10
2023-05-17T22:48:50.414Z,1.80
2023-05-17T22:53:52.801Z,1.23
2023-05-17T22:58:54.854Z,1.10
2023-05-17T23:03:56.982Z,1.63
2023-05-17T23:09:00.768Z,1.25
2023-05-17T23:14:02.860Z,1.88
2023-05-17T23:19:04.932Z,1.42
2023-05-17T23:24:08.397Z,1.10
2023-05-17T23:29:10.973Z,1.50
2023-05-17T23:34:13.008Z,1.48
2023-05-17T23:39:15.884Z,1.48
2023-05-17T23:44:18.265Z,1.52
2023-05-17T23:54:23.106Z,1.10
2023-05-17T23:59:25.259Z,1.55
